createdAt,value
2022-09-21T00:00:44.628Z,101911.31
2022-09-21T00:03:11.149Z,101921.22
2022-09-21T00:05:38.196Z,101925.50
2022-09-21T00:08:06.716Z,101914.47
2022-09-21T00:10:34.086Z,101915.19
2022-09-21T00:13:02.834Z,101913.84
2022-09-21T00:15:30.433Z,101914.50
2022-09-21T00:17:58.371Z,101916.50
2022-09-21T00:20:25.916Z,101914.50
2022-09-21T00:22:52.616Z,101921.28
2022-09-21T00:25:20.192Z,101926.88
2022-09-21T00:27:48.571Z,101920.81
2022-09-21T00:30:15.299Z,101921.63
2022-09-21T00:32:41.588Z,101917.50
2022-09-21T00:35:09.374Z,101923.78
2022-09-21T00:37:36.143Z,101930.50
2022-09-21T00:40:03.985Z,101929.22
2022-09-21T00:42:33.371Z,101929.88
2022-09-21T00:45:00.450Z,101933.84
2022-09-21T00:47:33.822Z,101931.69
2022-09-21T00:50:05.248Z,101930.88
2022-09-21T00:52:36.873Z,101941.25
2022-09-21T00:55:17.281Z,101933.84
2022-09-21T00:57:45.925Z,101937.47
2022-09-21T01:00:12.181Z,101941.09
2022-09-21T01:02:38.948Z,101936.00
2022-09-21T01:05:07.417Z,101938.63
2022-09-21T01:07:37.994Z,101948.53
2022-09-21T01:10:09.222Z,101935.19
2022-09-21T01:12:42.761Z,101947.88
2022-09-21T01:15:14.916Z,101935.38
2022-09-21T01:17:53.604Z,101947.19
2022-09-21T01:20:39.340Z,101946.03
2022-09-21T01:23:27.984Z,101946.53
2022-09-21T01:26:01.577Z,101944.91
2022-09-21T01:28:51.501Z,101941.47
2022-09-21T01:31:24.286Z,101956.59
2022-09-21T01:33:59.122Z,101950.84
2022-09-21T01:36:30.947Z,101953.47
2022-09-21T01:39:08.631Z,101951.66
2022-09-21T01:41:37.599Z,101958.41
2022-09-21T01:44:12.318Z,101950.19
2022-09-21T01:46:39.395Z,101950.53
2022-09-21T01:49:13.039Z,101953.97
2022-09-21T01:51:43.786Z,101953.16
2022-09-21T01:54:21.377Z,101955.44
2022-09-21T01:56:52.542Z,101953.81
2022-09-21T01:59:24.777Z,101960.88
2022-09-21T02:01:59.249Z,101948.38
2022-09-21T02:04:26.123Z,101953.16
2022-09-21T02:06:53.060Z,101949.06
2022-09-21T02:09:19.454Z,101952.50
2022-09-21T02:11:45.997Z,101950.34
2022-09-21T02:14:16.925Z,101953.81
2022-09-21T02:17:05.017Z,101957.59
2022-09-21T02:19:40.422Z,101955.09
2022-09-21T02:22:33.192Z,101951.84
2022-09-21T02:25:08.412Z,101959.72
2022-09-21T02:27:53.442Z,101957.75
2022-09-21T02:30:22.265Z,101955.59
2022-09-21T02:33:02.145Z,101949.84
2022-09-21T02:35:48.137Z,101953.63
2022-09-21T02:38:22.592Z,101958.72
2022-09-21T02:40:56.668Z,101961.34
2022-09-21T02:43:31.255Z,101952.28
2022-09-21T02:46:06.769Z,101956.53
2022-09-21T02:48:41.743Z,101951.28
2022-09-21T02:51:16.444Z,101953.91
2022-09-21T02:53:44.625Z,101946.69
2022-09-21T02:56:13.033Z,101950.16
2022-09-21T02:58:43.541Z,101953.56
2022-09-21T03:01:14.585Z,101949.44
2022-09-21T03:03:41.047Z,101955.69
2022-09-21T03:06:07.647Z,101956.34
2022-09-21T03:08:33.953Z,101951.69
2022-09-21T03:11:00.822Z,101954.81
2022-09-21T03:13:27.116Z,101958.75
2022-09-21T03:16:01.761Z,101957.75
2022-09-21T03:18:29.560Z,101961.38
2022-09-21T03:20:56.137Z,101956.94
2022-09-21T03:23:22.783Z,101955.59
2022-09-21T03:25:49.740Z,101958.41
2022-09-21T03:28:16.140Z,101957.56
2022-09-21T03:30:42.728Z,101962.34
2022-09-21T03:33:09.599Z,101965.13
2022-09-21T03:35:35.912Z,101964.31
2022-09-21T03:38:02.777Z,101963.78
2022-09-21T03:40:29.440Z,101961.84
2022-09-21T03:42:55.749Z,101964.94
2022-09-21T03:45:22.068Z,101965.28
2022-09-21T03:47:48.593Z,101960.84
2022-09-21T03:50:15.633Z,101963.94
2022-09-21T03:52:42.037Z,101962.31
2022-09-21T03:55:09.408Z,101956.53
2022-09-21T03:57:36.560Z,101963.25
2022-09-21T04:00:06.797Z,101963.09
2022-09-21T04:02:33.195Z,101961.13
2022-09-21T04:04:59.959Z,101956.19
2022-09-21T04:07:26.443Z,101957.66
2022-09-21T04:09:53.499Z,101966.34
2022-09-21T04:12:22.928Z,101966.97
2022-09-21T04:14:49.677Z,101960.56
2022-09-21T04:17:16.171Z,101965.34
2022-09-21T04:19:42.933Z,101960.56
2022-09-21T04:22:09.455Z,101962.53
2022-09-21T04:24:35.736Z,101962.88
2022-09-21T04:27:02.023Z,101954.03
2022-09-21T04:29:28.317Z,101962.38
2022-09-21T04:31:54.654Z,101963.03
2022-09-21T04:34:21.090Z,101957.78
2022-09-21T04:36:47.385Z,101958.06
2022-09-21T04:39:13.669Z,101963.16
2022-09-21T04:41:39.984Z,101966.28
2022-09-21T04:44:06.375Z,101971.00
2022-09-21T04:46:32.782Z,101968.06
2022-09-21T04:48:59.217Z,101972.81
2022-09-21T04:51:25.525Z,101965.56
2022-09-21T04:53:52.040Z,101964.25
2022-09-21T04:56:18.362Z,101971.47
2022-09-21T04:58:44.876Z,101975.06
2022-09-21T05:01:11.851Z,101973.78
2022-09-21T05:03:38.602Z,101969.63
2022-09-21T05:06:05.344Z,101983.56
2022-09-21T05:08:50.439Z,101979.16
2022-09-21T05:11:22.730Z,101985.06
2022-09-21T05:13:49.013Z,101977.81
2022-09-21T05:16:16.735Z,101984.19
2022-09-21T05:18:43.566Z,101986.16
2022-09-21T05:21:11.970Z,101988.13
2022-09-21T05:23:38.490Z,101988.97
2022-09-21T05:26:05.188Z,101988.13
2022-09-21T05:28:33.777Z,101986.81
2022-09-21T05:31:17.675Z,101991.25
2022-09-21T05:33:52.300Z,102001.06
2022-09-21T05:36:45.048Z,102007.28
2022-09-21T05:39:11.968Z,102007.47
2022-09-21T05:41:38.583Z,102005.81
2022-09-21T05:44:05.330Z,102001.38
2022-09-21T05:46:39.515Z,102010.91
2022-09-21T05:49:14.879Z,102006.47
2022-09-21T05:52:14.725Z,102010.38
2022-09-21T05:54:56.420Z,102007.78
2022-09-21T05:57:49.726Z,102009.41
2022-09-21T06:00:21.492Z,102017.66
2022-09-21T06:02:57.513Z,102010.63
2022-09-21T06:05:24.125Z,102012.78
2022-09-21T06:07:50.535Z,102016.91
2022-09-21T06:10:17.071Z,102019.88
2022-09-21T06:12:43.497Z,102016.75
2022-09-21T06:15:12.436Z,102028.94
2022-09-21T06:17:38.743Z,102026.34
2022-09-21T06:20:06.994Z,102025.38
2022-09-21T06:22:34.178Z,102035.06
2022-09-21T06:25:00.512Z,102038.03
2022-09-21T06:27:28.116Z,102034.09
2022-09-21T06:29:54.495Z,102038.72
2022-09-21T06:32:20.968Z,102040.88
2022-09-21T06:34:47.243Z,102035.50
2022-09-21T06:37:13.545Z,102043.19
2022-09-21T06:39:39.964Z,102034.19
2022-09-21T06:42:06.316Z,102036.03
2022-09-21T06:44:32.618Z,102040.31
2022-09-21T06:46:58.926Z,102036.56
2022-09-21T06:49:28.505Z,102041.69
2022-09-21T06:51:55.755Z,102037.63
2022-09-21T06:54:22.072Z,102034.38
2022-09-21T06:56:48.570Z,102036.69
2022-09-21T06:59:14.869Z,102037.38
2022-09-21T07:01:41.341Z,102035.56
2022-09-21T07:04:09.269Z,102027.03
2022-09-21T07:06:35.717Z,102029.66
2022-09-21T07:11:49.651Z,102031.84
2022-09-21T07:14:15.943Z,102042.53
2022-09-21T07:16:43.280Z,102038.44
2022-09-21T07:19:11.601Z,102042.38
2022-09-21T07:21:38.367Z,102039.94
2022-09-21T07:24:09.589Z,102034.34
2022-09-21T07:26:38.160Z,102041.75
2022-09-21T07:29:04.614Z,102038.66
2022-09-21T07:31:31.089Z,102037.59
2022-09-21T07:33:58.987Z,102036.84
2022-09-21T07:36:25.485Z,102041.09
2022-09-21T07:38:53.912Z,102042.13
2022-09-21T07:41:20.521Z,102040.59
2022-09-21T07:43:47.163Z,102042.19
2022-09-21T07:46:15.033Z,102046.09
2022-09-21T07:48:41.603Z,102038.28
2022-09-21T07:51:10.977Z,102045.56
2022-09-21T07:53:38.981Z,102037.03
2022-09-21T07:56:07.805Z,102038.63
2022-09-21T07:58:54.202Z,102044.47
2022-09-21T08:01:20.661Z,102036.88
2022-09-21T08:03:54.212Z,102035.34
2022-09-21T08:06:21.969Z,102040.97
2022-09-21T08:08:51.528Z,102033.59
2022-09-21T08:11:22.380Z,102032.19
2022-09-21T08:13:48.953Z,102034.94
2022-09-21T08:16:15.303Z,102033.66
2022-09-21T08:18:41.917Z,102030.56
2022-09-21T08:21:12.137Z,102041.19
2022-09-21T08:23:42.828Z,102037.81
2022-09-21T08:26:16.324Z,102043.59
2022-09-21T08:28:42.613Z,102036.59
2022-09-21T08:31:10.142Z,102037.56
2022-09-21T08:33:36.637Z,102029.75
2022-09-21T08:36:04.256Z,102040.09
2022-09-21T08:38:35.475Z,102041.53
2022-09-21T08:41:11.119Z,102051.59
2022-09-21T08:43:41.998Z,102051.59
2022-09-21T08:46:28.981Z,102051.13
2022-09-21T08:49:00.200Z,102044.44
2022-09-21T08:51:33.712Z,102052.88
2022-09-21T08:54:07.001Z,102052.16
2022-09-21T08:57:00.703Z,102050.16
2022-09-21T08:59:20.716Z,102047.84
2022-09-21T09:02:07.753Z,102053.09
2022-09-21T09:05:10.052Z,102051.66
2022-09-21T09:08:01.240Z,102048.22
2022-09-21T09:10:30.621Z,102045.59
2022-09-21T09:13:16.013Z,102054.16
2022-09-21T09:16:06.660Z,102056.34
2022-09-21T09:18:39.080Z,102047.72
2022-09-21T09:21:37.623Z,102052.63
2022-09-21T09:24:08.838Z,102043.19
2022-09-21T09:26:42.510Z,102044.53
2022-09-21T09:29:21.640Z,102046.28
2022-09-21T09:31:48.694Z,102045.66
2022-09-21T09:34:24.796Z,102051.78
2022-09-21T09:36:59.423Z,102039.41
2022-09-21T09:39:29.721Z,102042.78
2022-09-21T09:42:22.925Z,102048.06
2022-09-21T09:45:07.182Z,102047.03
2022-09-21T09:48:04.805Z,102043.88
2022-09-21T09:50:38.898Z,102042.78
2022-09-21T09:53:16.058Z,102043.22
2022-09-21T09:55:52.297Z,102042.50
2022-09-21T09:58:24.250Z,102043.38
2022-09-21T10:00:55.384Z,102045.47
2022-09-21T10:03:26.801Z,102048.00
2022-09-21T10:05:54.108Z,102046.19
2022-09-21T10:08:42.074Z,102033.81
2022-09-21T10:11:10.165Z,102037.69
2022-09-21T10:13:39.980Z,102041.03
2022-09-21T10:16:13.780Z,102038.31
2022-09-21T10:18:47.589Z,102038.38
2022-09-21T10:21:25.478Z,102028.72
2022-09-21T10:23:57.058Z,102032.53
2022-09-21T10:26:23.550Z,102031.44
2022-09-21T10:29:02.217Z,102034.34
2022-09-21T10:31:30.316Z,102034.13
2022-09-21T10:34:14.412Z,102031.38
2022-09-21T10:36:41.503Z,102032.41
2022-09-21T10:39:18.765Z,102034.56
2022-09-21T10:41:50.572Z,102028.25
2022-09-21T10:44:19.187Z,102026.38
2022-09-21T10:46:47.341Z,102030.16
2022-09-21T10:49:27.409Z,102027.03
2022-09-21T10:51:57.419Z,102023.81
2022-09-21T10:54:30.244Z,102029.03
2022-09-21T10:57:03.729Z,102019.28
2022-09-21T10:59:32.772Z,102018.16
2022-09-21T11:02:00.694Z,102015.03
2022-09-21T11:04:29.943Z,102017.56
2022-09-21T11:07:20.569Z,102014.44
2022-09-21T11:10:09.572Z,102012.19
2022-09-21T11:12:54.058Z,102011.53
2022-09-21T11:15:40.529Z,102008.13
2022-09-21T11:18:37.527Z,102018.72
2022-09-21T11:21:36.470Z,102008.69
2022-09-21T11:24:39.467Z,102006.44
2022-09-21T11:27:18.710Z,102009.75
2022-09-21T11:29:57.627Z,102011.75
2022-09-21T11:32:29.887Z,102011.75
2022-09-21T11:35:11.286Z,102000.78
2022-09-21T11:37:59.494Z,102006.44
2022-09-21T11:40:44.837Z,101999.53
2022-09-21T11:43:22.680Z,101995.50
2022-09-21T11:46:06.692Z,101997.56
2022-09-21T11:49:00.955Z,101995.13
2022-09-21T11:51:58.794Z,101987.84
2022-09-21T11:54:57.192Z,101984.94
2022-09-21T11:57:40.842Z,101982.06
2022-09-21T12:00:15.375Z,101986.47
2022-09-21T12:03:23.098Z,101980.66
2022-09-21T12:06:15.292Z,101984.63
2022-09-21T12:08:55.866Z,101983.81
2022-09-21T12:11:48.443Z,101983.28
2022-09-21T12:14:47.179Z,101977.94
2022-09-21T12:17:17.828Z,101986.81
2022-09-21T12:20:13.957Z,101975.41
2022-09-21T12:22:44.285Z,101966.09
2022-09-21T12:25:10.569Z,101962.44
2022-09-21T12:27:51.933Z,101961.16
2022-09-21T12:30:21.004Z,101965.59
2022-09-21T12:32:57.733Z,101970.38
2022-09-21T12:36:00.183Z,101966.31
2022-09-21T12:39:01.554Z,101960.66
2022-09-21T12:41:53.694Z,101964.34
2022-09-21T12:44:34.113Z,101958.81
2022-09-21T12:47:11.389Z,101951.59
2022-09-21T12:49:48.221Z,101956.16
2022-09-21T12:52:33.132Z,101953.47
2022-09-21T12:55:37.757Z,101948.78
2022-09-21T12:58:19.089Z,101943.63
2022-09-21T13:00:59.836Z,101939.66
2022-09-21T13:03:37.262Z,101941.78
2022-09-21T13:06:29.500Z,101938.19
2022-09-21T13:08:57.066Z,101937.91
2022-09-21T13:11:23.528Z,101931.09
2022-09-21T13:13:59.698Z,101933.53
2022-09-21T13:16:30.534Z,101930.06
2022-09-21T13:19:00.608Z,101924.44
2022-09-21T13:21:32.134Z,101927.31
2022-09-21T13:24:08.551Z,101920.44
2022-09-21T13:26:40.724Z,101923.78
2022-09-21T13:29:18.989Z,101927.00
2022-09-21T13:32:00.715Z,101920.59
2022-09-21T13:34:41.765Z,101910.16
2022-09-21T13:37:11.142Z,101918.28
2022-09-21T13:39:55.601Z,101911.78
2022-09-21T13:42:33.606Z,101914.31
2022-09-21T13:44:59.826Z,101913.56
2022-09-21T13:47:32.866Z,101915.19
2022-09-21T13:50:03.145Z,101903.53
2022-09-21T13:52:46.931Z,101901.50
2022-09-21T13:55:28.846Z,101896.69
2022-09-21T13:57:58.831Z,101894.78
2022-09-21T14:00:35.855Z,101891.13
2022-09-21T14:03:38.472Z,101890.38
2022-09-21T14:06:13.726Z,101887.59
2022-09-21T14:08:49.812Z,101890.84
2022-09-21T14:11:40.436Z,101884.00
2022-09-21T14:14:12.789Z,101883.63
2022-09-21T14:16:41.636Z,101890.50
2022-09-21T14:19:17.039Z,101888.06
2022-09-21T14:22:08.191Z,101888.88
2022-09-21T14:24:42.010Z,101886.47
2022-09-21T14:27:41.203Z,101876.34
2022-09-21T14:30:24.066Z,101878.38
2022-09-21T14:32:59.513Z,101875.13
2022-09-21T14:35:33.696Z,101870.72
2022-09-21T14:38:14.325Z,101875.13
2022-09-21T14:40:48.262Z,101875.97
2022-09-21T14:43:20.794Z,101874.31
2022-09-21T14:45:55.864Z,101868.66
2022-09-21T14:49:07.986Z,101862.91
2022-09-21T14:54:53.486Z,101857.16
2022-09-21T14:58:05.253Z,101863.63
2022-09-21T15:00:47.750Z,101859.13
2022-09-21T15:03:30.579Z,101860.75
2022-09-21T15:06:42.715Z,101857.84
2022-09-21T15:09:58.566Z,101852.56
2022-09-21T15:12:38.045Z,101854.19
2022-09-21T15:15:31.805Z,101843.66
2022-09-21T15:18:01.775Z,101843.69
2022-09-21T15:20:31.989Z,101846.91
2022-09-21T15:23:00.025Z,101842.91
2022-09-21T15:25:30.634Z,101846.19
2022-09-21T15:27:57.171Z,101836.50
2022-09-21T15:30:29.417Z,101838.06
2022-09-21T15:33:00.896Z,101834.81
2022-09-21T15:35:30.532Z,101837.22
2022-09-21T15:38:00.729Z,101835.59
2022-09-21T15:40:36.350Z,101836.75
2022-09-21T15:43:16.826Z,101835.13
2022-09-21T15:46:01.976Z,101830.25
2022-09-21T15:48:34.066Z,101828.19
2022-09-21T15:51:23.248Z,101828.94
2022-09-21T15:53:55.695Z,101828.94
2022-09-21T15:56:25.861Z,101828.91
2022-09-21T15:59:08.660Z,101825.22
2022-09-21T16:01:44.238Z,101830.06
2022-09-21T16:04:21.783Z,101828.00
2022-09-21T16:07:04.437Z,101825.94
2022-09-21T16:09:44.977Z,101833.19
2022-09-21T16:12:26.458Z,101835.97
2022-09-21T16:14:53.814Z,101828.75
2022-09-21T16:17:23.852Z,101825.06
2022-09-21T16:19:56.609Z,101831.91
2022-09-21T16:22:59.268Z,101830.25
2022-09-21T16:25:27.859Z,101839.09
2022-09-21T16:27:54.183Z,101823.78
2022-09-21T16:30:44.747Z,101829.00
2022-09-21T16:33:33.033Z,101832.13
2022-09-21T16:36:03.917Z,101834.53
2022-09-21T16:38:32.671Z,101831.25
2022-09-21T16:40:59.858Z,101835.22
2022-09-21T16:43:26.663Z,101829.91
2022-09-21T16:45:52.944Z,101837.88
2022-09-21T16:48:19.580Z,101839.88
2022-09-21T16:50:46.310Z,101843.00
2022-09-21T16:53:13.016Z,101838.53
2022-09-21T16:55:42.801Z,101839.69
2022-09-21T16:58:09.167Z,101840.81
2022-09-21T17:00:40.411Z,101841.16
2022-09-21T17:03:06.711Z,101841.91
2022-09-21T17:05:33.029Z,101844.66
2022-09-21T17:07:59.371Z,101840.97
2022-09-21T17:10:31.657Z,101842.50
2022-09-21T17:12:59.037Z,101848.91
2022-09-21T17:15:27.049Z,101837.47
2022-09-21T17:17:53.348Z,101841.44
2022-09-21T17:20:38.106Z,101842.06
2022-09-21T17:23:04.757Z,101834.00
2022-09-21T17:25:32.724Z,101836.28
2022-09-21T17:27:59.961Z,101838.63
2022-09-21T17:30:27.168Z,101850.63
2022-09-21T17:32:54.554Z,101842.88
2022-09-21T17:35:38.711Z,101840.59
2022-09-21T17:38:05.847Z,101846.97
2022-09-21T17:40:32.553Z,101838.75
2022-09-21T17:43:14.181Z,101845.38
2022-09-21T17:45:56.934Z,101848.00
2022-09-21T17:48:23.448Z,101842.28
2022-09-21T17:50:50.547Z,101848.94
2022-09-21T17:53:37.139Z,101846.72
2022-09-21T17:56:36.102Z,101846.91
2022-09-21T17:59:06.418Z,101854.00
2022-09-21T18:01:39.456Z,101850.22
2022-09-21T18:04:08.157Z,101854.06
2022-09-21T18:06:34.538Z,101856.34
2022-09-21T18:09:01.581Z,101857.09
2022-09-21T18:11:49.902Z,101858.81
2022-09-21T18:14:31.537Z,101856.59
2022-09-21T18:17:15.523Z,101857.59
2022-09-21T18:19:49.432Z,101864.69
2022-09-21T18:22:43.755Z,101863.25
2022-09-21T18:25:16.108Z,101865.53
2022-09-21T18:27:48.524Z,101864.53
2022-09-21T18:30:17.337Z,101863.16
2022-09-21T18:32:58.001Z,101866.53
2022-09-21T18:35:37.652Z,101864.00
2022-09-21T18:38:22.216Z,101868.97
2022-09-21T18:41:12.712Z,101871.56
2022-09-21T18:43:50.674Z,101864.13
2022-09-21T18:46:24.294Z,101876.91
2022-09-21T18:49:02.746Z,101868.72
2022-09-21T18:52:07.300Z,101870.88
2022-09-21T18:54:33.804Z,101868.78
2022-09-21T18:57:00.466Z,101877.84
2022-09-21T18:59:31.699Z,101868.84
2022-09-21T19:01:59.106Z,101866.31
2022-09-21T19:04:26.050Z,101883.44
2022-09-21T19:07:10.866Z,101866.72
2022-09-21T19:09:44.584Z,101878.31
2022-09-21T19:12:53.824Z,101878.91
2022-09-21T19:15:59.666Z,101875.19
2022-09-21T19:19:06.988Z,101879.06
2022-09-21T19:21:45.710Z,101890.19
2022-09-21T19:24:30.861Z,101887.97
2022-09-21T19:27:26.150Z,101888.66
2022-09-21T19:30:03.609Z,101878.50
2022-09-21T19:32:33.041Z,101872.41
2022-09-21T19:35:12.228Z,101879.91
2022-09-21T19:37:39.339Z,101879.44
2022-09-21T19:40:06.843Z,101872.88
2022-09-21T19:42:59.261Z,101884.72
2022-09-21T19:45:41.419Z,101875.00
2022-09-21T19:48:14.953Z,101884.97
2022-09-21T19:50:46.602Z,101877.25
2022-09-21T19:53:53.178Z,101879.47
2022-09-21T19:56:38.465Z,101869.31
2022-09-21T19:59:23.762Z,101875.50
2022-09-21T20:01:56.608Z,101870.00
2022-09-21T20:04:34.452Z,101870.25
2022-09-21T20:07:07.761Z,101869.31
2022-09-21T20:09:41.999Z,101870.00
2022-09-21T20:12:32.765Z,101868.59
2022-09-21T20:15:11.277Z,101867.34
2022-09-21T20:17:44.532Z,101881.00
2022-09-21T20:20:23.987Z,101880.88
2022-09-21T20:22:50.876Z,101880.41
2022-09-21T20:25:31.104Z,101874.91
2022-09-21T20:27:57.826Z,101873.63
2022-09-21T20:30:27.196Z,101872.97
2022-09-21T20:32:57.851Z,101878.00
2022-09-21T20:35:27.430Z,101873.09
2022-09-21T20:37:54.988Z,101872.63
2022-09-21T20:40:28.624Z,101872.50
2022-09-21T20:42:56.528Z,101881.25
2022-09-21T20:45:22.825Z,101875.50
2022-09-21T20:47:50.534Z,101877.88
2022-09-21T20:50:17.688Z,101871.78
2022-09-21T20:52:44.962Z,101876.09
2022-09-21T20:55:17.234Z,101877.81
2022-09-21T20:57:44.219Z,101870.13
2022-09-21T21:00:13.696Z,101875.94
2022-09-21T21:02:40.300Z,101882.22
2022-09-21T21:05:07.982Z,101878.81
2022-09-21T21:07:35.141Z,101879.16
2022-09-21T21:10:02.112Z,101880.66
2022-09-21T21:12:28.693Z,101877.72
2022-09-21T21:14:55.674Z,101870.03
2022-09-21T21:17:22.000Z,101871.53
2022-09-21T21:19:48.405Z,101871.06
2022-09-21T21:22:14.745Z,101869.28
2022-09-21T21:24:41.150Z,101875.56
2022-09-21T21:27:14.629Z,101865.38
2022-09-21T21:29:41.917Z,101879.38
2022-09-21T21:32:08.339Z,101872.50
2022-09-21T21:34:34.670Z,101876.78
2022-09-21T21:37:01.013Z,101886.72
2022-09-21T21:39:27.360Z,101885.75
2022-09-21T21:41:53.652Z,101880.00
2022-09-21T21:44:19.964Z,101886.28
2022-09-21T21:46:46.244Z,101884.16
2022-09-21T21:49:13.380Z,101884.81
2022-09-21T21:51:39.978Z,101884.38
2022-09-21T21:54:06.354Z,101884.22
2022-09-21T21:56:32.801Z,101877.31
2022-09-21T21:58:59.111Z,101884.41
2022-09-21T22:01:27.976Z,101881.47
2022-09-21T22:03:59.814Z,101874.25
2022-09-21T22:06:27.365Z,101872.94
2022-09-21T22:08:55.399Z,101875.25
2022-09-21T22:11:23.565Z,101868.03
2022-09-21T22:13:50.353Z,101861.47
2022-09-21T22:16:19.100Z,101863.78
2022-09-21T22:18:46.278Z,101863.28
2022-09-21T22:21:15.419Z,101860.69
2022-09-21T22:23:42.569Z,101857.44
2022-09-21T22:26:17.015Z,101857.63
2022-09-21T22:28:52.793Z,101859.47
2022-09-21T22:31:21.590Z,101863.41
2022-09-21T22:33:48.655Z,101856.84
2022-09-21T22:36:17.856Z,101856.34
2022-09-21T22:38:45.700Z,101857.53
2022-09-21T22:41:27.580Z,101855.72
2022-09-21T22:43:55.393Z,101857.38
2022-09-21T22:46:22.904Z,101857.72
2022-09-21T22:48:49.582Z,101858.06
2022-09-21T22:51:17.584Z,101858.72
2022-09-21T22:53:44.722Z,101857.91
2022-09-21T22:56:13.444Z,101853.78
2022-09-21T22:58:41.928Z,101859.72
2022-09-21T23:01:11.198Z,101852.50
2022-09-21T23:03:38.620Z,101851.19
2022-09-21T23:06:06.956Z,101853.50
2022-09-21T23:08:34.270Z,101850.25
2022-09-21T23:11:13.691Z,101848.78
2022-09-21T23:13:40.567Z,101848.47
2022-09-21T23:16:09.723Z,101850.28
2022-09-21T23:18:37.148Z,101852.56
2022-09-21T23:21:05.965Z,101854.44
2022-09-21T23:23:33.116Z,101853.91
2022-09-21T23:26:20.241Z,101853.28
2022-09-21T23:28:51.964Z,101852.47
2022-09-21T23:31:18.398Z,101850.03
2022-09-21T23:33:53.154Z,101848.19
2022-09-21T23:36:23.437Z,101852.94
2022-09-21T23:38:50.451Z,101849.69
2022-09-21T23:41:20.644Z,101847.53
2022-09-21T23:43:47.523Z,101847.53
2022-09-21T23:46:17.591Z,101841.81
2022-09-21T23:48:44.825Z,101846.25
2022-09-21T23:51:11.748Z,101841.00
2022-09-21T23:53:38.858Z,101848.53
2022-09-21T23:56:06.307Z,101845.28
2022-09-21T23:58:33.311Z,101842.81
